sensor_id;sensor_type;location;lat;lon;timestamp;P1;durP1;ratioP1;P2;durP2;ratioP2
18172;SDS011;9211;48.818;9.312;2023-12-28T00:01:49;2.75;;;1.67;;
18172;SDS011;9211;48.818;9.312;2023-12-28T00:04:17;3.40;;;1.77;;
18172;SDS011;9211;48.818;9.312;2023-12-28T00:06:45;2.70;;;1.57;;
18172;SDS011;9211;48.818;9.312;2023-12-28T00:09:12;3.58;;;1.88;;
18172;SDS011;9211;48.818;9.312;2023-12-28T00:11:39;4.07;;;1.80;;
18172;SDS011;9211;48.818;9.312;2023-12-28T00:14:06;2.95;;;1.90;;
18172;SDS011;9211;48.818;9.312;2023-12-28T00:16:33;3.28;;;1.80;;
18172;SDS011;9211;48.818;9.312;2023-12-28T00:19:01;2.92;;;1.95;;
18172;SDS011;9211;48.818;9.312;2023-12-28T00:21:29;3.20;;;1.80;;
18172;SDS011;9211;48.818;9.312;2023-12-28T00:23:57;3.83;;;1.90;;
18172;SDS011;9211;48.818;9.312;2023-12-28T00:26:24;2.95;;;1.73;;
18172;SDS011;9211;48.818;9.312;2023-12-28T00:29:01;3.17;;;1.60;;
18172;SDS011;9211;48.818;9.312;2023-12-28T00:31:28;2.92;;;1.63;;
18172;SDS011;9211;48.818;9.312;2023-12-28T00:33:55;3.25;;;1.73;;
18172;SDS011;9211;48.818;9.312;2023-12-28T00:36:22;2.53;;;1.30;;
18172;SDS011;9211;48.818;9.312;2023-12-28T00:38:49;3.55;;;1.70;;
18172;SDS011;9211;48.818;9.312;2023-12-28T00:41:17;2.92;;;1.52;;
18172;SDS011;9211;48.818;9.312;2023-12-28T00:43:44;2.80;;;1.55;;
18172;SDS011;9211;48.818;9.312;2023-12-28T00:46:11;3.25;;;1.58;;
18172;SDS011;9211;48.818;9.312;2023-12-28T00:48:38;3.58;;;1.77;;
18172;SDS011;9211;48.818;9.312;2023-12-28T00:51:05;3.47;;;1.70;;
18172;SDS011;9211;48.818;9.312;2023-12-28T00:53:32;2.45;;;1.50;;
18172;SDS011;9211;48.818;9.312;2023-12-28T00:55:59;2.40;;;1.60;;
18172;SDS011;9211;48.818;9.312;2023-12-28T00:58:28;2.83;;;1.67;;
18172;SDS011;9211;48.818;9.312;2023-12-28T01:00:55;3.05;;;1.60;;
18172;SDS011;9211;48.818;9.312;2023-12-28T01:03:22;3.08;;;1.70;;
18172;SDS011;9211;48.818;9.312;2023-12-28T01:05:49;3.00;;;1.45;;
18172;SDS011;9211;48.818;9.312;2023-12-28T01:08:17;4.10;;;1.73;;
18172;SDS011;9211;48.818;9.312;2023-12-28T01:10:44;3.10;;;1.50;;
18172;SDS011;9211;48.818;9.312;2023-12-28T01:13:11;2.83;;;1.70;;
18172;SDS011;9211;48.818;9.312;2023-12-28T01:15:40;2.47;;;1.70;;
18172;SDS011;9211;48.818;9.312;2023-12-28T01:18:07;3.13;;;1.70;;
18172;SDS011;9211;48.818;9.312;2023-12-28T01:20:34;3.53;;;1.80;;
18172;SDS011;9211;48.818;9.312;2023-12-28T01:23:03;2.58;;;1.73;;
18172;SDS011;9211;48.818;9.312;2023-12-28T01:25:31;3.78;;;1.75;;
18172;SDS011;9211;48.818;9.312;2023-12-28T01:27:58;2.90;;;1.70;;
18172;SDS011;9211;48.818;9.312;2023-12-28T01:30:25;2.72;;;1.60;;
18172;SDS011;9211;48.818;9.312;2023-12-28T01:32:54;3.15;;;1.77;;
18172;SDS011;9211;48.818;9.312;2023-12-28T01:35:21;4.07;;;1.77;;
18172;SDS011;9211;48.818;9.312;2023-12-28T01:37:47;3.22;;;1.60;;
18172;SDS011;9211;48.818;9.312;2023-12-28T01:40:15;3.03;;;1.70;;
18172;SDS011;9211;48.818;9.312;2023-12-28T01:42:41;3.05;;;1.80;;
18172;SDS011;9211;48.818;9.312;2023-12-28T01:45:09;2.78;;;1.70;;
18172;SDS011;9211;48.818;9.312;2023-12-28T01:47:36;3.17;;;1.77;;
18172;SDS011;9211;48.818;9.312;2023-12-28T01:50:05;3.45;;;1.80;;
18172;SDS011;9211;48.818;9.312;2023-12-28T01:52:32;3.25;;;1.80;;
18172;SDS011;9211;48.818;9.312;2023-12-28T01:55:00;2.90;;;1.70;;
18172;SDS011;9211;48.818;9.312;2023-12-28T01:57:29;4.20;;;1.73;;
18172;SDS011;9211;48.818;9.312;2023-12-28T01:59:56;4.32;;;1.80;;
18172;SDS011;9211;48.818;9.312;2023-12-28T02:02:26;3.38;;;1.73;;
18172;SDS011;9211;48.818;9.312;2023-12-28T02:04:53;2.90;;;1.70;;
18172;SDS011;9211;48.818;9.312;2023-12-28T02:07:22;3.40;;;1.80;;
18172;SDS011;9211;48.818;9.312;2023-12-28T02:09:51;3.25;;;1.90;;
18172;SDS011;9211;48.818;9.312;2023-12-28T02:12:17;3.40;;;2.00;;
18172;SDS011;9211;48.818;9.312;2023-12-28T02:14:44;3.37;;;1.90;;
18172;SDS011;9211;48.818;9.312;2023-12-28T02:17:13;3.30;;;2.10;;
18172;SDS011;9211;48.818;9.312;2023-12-28T02:19:47;4.22;;;2.13;;
18172;SDS011;9211;48.818;9.312;2023-12-28T02:22:16;4.35;;;2.30;;
18172;SDS011;9211;48.818;9.312;2023-12-28T02:24:57;4.95;;;2.63;;
18172;SDS011;9211;48.818;9.312;2023-12-28T02:27:29;4.05;;;2.60;;
18172;SDS011;9211;48.818;9.312;2023-12-28T02:29:57;4.55;;;2.58;;
18172;SDS011;9211;48.818;9.312;2023-12-28T02:32:32;4.70;;;2.33;;
18172;SDS011;9211;48.818;9.312;2023-12-28T02:35:17;5.43;;;2.70;;
18172;SDS011;9211;48.818;9.312;2023-12-28T02:37:47;6.03;;;3.00;;
18172;SDS011;9211;48.818;9.312;2023-12-28T02:40:19;4.97;;;2.50;;
18172;SDS011;9211;48.818;9.312;2023-12-28T02:42:48;5.55;;;2.58;;
18172;SDS011;9211;48.818;9.312;2023-12-28T02:45:16;5.85;;;2.95;;
18172;SDS011;9211;48.818;9.312;2023-12-28T02:47:44;5.20;;;2.80;;
18172;SDS011;9211;48.818;9.312;2023-12-28T02:50:11;6.78;;;3.10;;
18172;SDS011;9211;48.818;9.312;2023-12-28T02:52:38;5.18;;;2.80;;
18172;SDS011;9211;48.818;9.312;2023-12-28T02:55:05;4.18;;;2.60;;
18172;SDS011;9211;48.818;9.312;2023-12-28T02:57:34;4.90;;;2.90;;
18172;SDS011;9211;48.818;9.312;2023-12-28T03:00:04;5.00;;;2.70;;
18172;SDS011;9211;48.818;9.312;2023-12-28T03:02:55;4.43;;;2.57;;
18172;SDS011;9211;48.818;9.312;2023-12-28T03:05:22;3.90;;;2.30;;
18172;SDS011;9211;48.818;9.312;2023-12-28T03:07:49;3.85;;;2.05;;
18172;SDS011;9211;48.818;9.312;2023-12-28T03:10:17;4.30;;;2.03;;
18172;SDS011;9211;48.818;9.312;2023-12-28T03:12:45;3.42;;;2.10;;
18172;SDS011;9211;48.818;9.312;2023-12-28T03:15:13;4.63;;;2.20;;
18172;SDS011;9211;48.818;9.312;2023-12-28T03:17:40;4.85;;;2.47;;
18172;SDS011;9211;48.818;9.312;2023-12-28T03:20:08;4.07;;;2.47;;
18172;SDS011;9211;48.818;9.312;2023-12-28T03:22:36;6.30;;;2.60;;
18172;SDS011;9211;48.818;9.312;2023-12-28T03:25:04;3.67;;;2.40;;
18172;SDS011;9211;48.818;9.312;2023-12-28T03:27:31;5.10;;;2.95;;
18172;SDS011;9211;48.818;9.312;2023-12-28T03:30:00;7.35;;;2.90;;
18172;SDS011;9211;48.818;9.312;2023-12-28T03:32:27;4.60;;;3.00;;
18172;SDS011;9211;48.818;9.312;2023-12-28T03:34:54;4.80;;;2.60;;
18172;SDS011;9211;48.818;9.312;2023-12-28T03:37:21;4.03;;;2.80;;
18172;SDS011;9211;48.818;9.312;2023-12-28T03:39:49;5.47;;;2.78;;
18172;SDS011;9211;48.818;9.312;2023-12-28T03:42:16;5.18;;;2.50;;
18172;SDS011;9211;48.818;9.312;2023-12-28T03:44:42;6.00;;;2.70;;
18172;SDS011;9211;48.818;9.312;2023-12-28T03:47:11;6.28;;;2.80;;
18172;SDS011;9211;48.818;9.312;2023-12-28T03:49:38;5.20;;;2.95;;
18172;SDS011;9211;48.818;9.312;2023-12-28T03:52:05;5.57;;;2.80;;
18172;SDS011;9211;48.818;9.312;2023-12-28T03:54:32;6.63;;;2.75;;
18172;SDS011;9211;48.818;9.312;2023-12-28T03:56:59;4.85;;;2.72;;
18172;SDS011;9211;48.818;9.312;2023-12-28T03:59:26;4.97;;;2.80;;
18172;SDS011;9211;48.818;9.312;2023-12-28T04:01:53;5.55;;;2.83;;
18172;SDS011;9211;48.818;9.312;2023-12-28T04:04:21;4.63;;;2.58;;
18172;SDS011;9211;48.818;9.312;2023-12-28T04:06:48;3.75;;;2.30;;
18172;SDS011;9211;48.818;9.312;2023-12-28T04:09:15;5.97;;;2.70;;
18172;SDS011;9211;48.818;9.312;2023-12-28T04:11:42;4.32;;;2.50;;
18172;SDS011;9211;48.818;9.312;2023-12-28T04:14:10;4.28;;;2.40;;
18172;SDS011;9211;48.818;9.312;2023-12-28T04:16:37;3.95;;;2.20;;
18172;SDS011;9211;48.818;9.312;2023-12-28T04:19:04;3.78;;;2.22;;
18172;SDS011;9211;48.818;9.312;2023-12-28T04:21:33;4.70;;;2.20;;
18172;SDS011;9211;48.818;9.312;2023-12-28T04:24:02;3.70;;;2.00;;
18172;SDS011;9211;48.818;9.312;2023-12-28T04:26:30;3.67;;;2.00;;
18172;SDS011;9211;48.818;9.312;2023-12-28T04:28:59;3.72;;;2.00;;
18172;SDS011;9211;48.818;9.312;2023-12-28T04:31:25;3.72;;;2.00;;
18172;SDS011;9211;48.818;9.312;2023-12-28T04:33:52;3.45;;;2.10;;
18172;SDS011;9211;48.818;9.312;2023-12-28T04:36:19;4.38;;;2.10;;
18172;SDS011;9211;48.818;9.312;2023-12-28T04:38:49;4.60;;;2.20;;
18172;SDS011;9211;48.818;9.312;2023-12-28T04:41:15;4.63;;;2.20;;
18172;SDS011;9211;48.818;9.312;2023-12-28T04:43:43;4.88;;;2.20;;
18172;SDS011;9211;48.818;9.312;2023-12-28T04:46:09;4.82;;;2.45;;
18172;SDS011;9211;48.818;9.312;2023-12-28T04:48:36;3.95;;;2.30;;
18172;SDS011;9211;48.818;9.312;2023-12-28T04:51:04;4.03;;;2.13;;
18172;SDS011;9211;48.818;9.312;2023-12-28T04:53:31;5.70;;;2.20;;
18172;SDS011;9211;48.818;9.312;2023-12-28T04:56:00;5.35;;;2.15;;
18172;SDS011;9211;48.818;9.312;2023-12-28T04:58:28;4.55;;;2.33;;
18172;SDS011;9211;48.818;9.312;2023-12-28T05:00:55;3.75;;;2.20;;
18172;SDS011;9211;48.818;9.312;2023-12-28T05:03:22;5.00;;;2.10;;
18172;SDS011;9211;48.818;9.312;2023-12-28T05:05:49;3.75;;;2.08;;
18172;SDS011;9211;48.818;9.312;2023-12-28T05:08:16;4.20;;;2.20;;
18172;SDS011;9211;48.818;9.312;2023-12-28T05:10:43;3.97;;;1.90;;
18172;SDS011;9211;48.818;9.312;2023-12-28T05:13:11;3.60;;;1.75;;
18172;SDS011;9211;48.818;9.312;2023-12-28T05:15:38;3.17;;;1.63;;
18172;SDS011;9211;48.818;9.312;2023-12-28T05:18:05;4.53;;;1.83;;
18172;SDS011;9211;48.818;9.312;2023-12-28T05:20:33;3.65;;;1.77;;
18172;SDS011;9211;48.818;9.312;2023-12-28T05:23:00;4.85;;;1.63;;
18172;SDS011;9211;48.818;9.312;2023-12-28T05:25:27;3.40;;;1.60;;
18172;SDS011;9211;48.818;9.312;2023-12-28T05:27:54;2.80;;;1.60;;
18172;SDS011;9211;48.818;9.312;2023-12-28T05:30:25;2.65;;;1.40;;
18172;SDS011;9211;48.818;9.312;2023-12-28T05:32:52;3.37;;;1.70;;
18172;SDS011;9211;48.818;9.312;2023-12-28T05:35:19;3.10;;;1.60;;
18172;SDS011;9211;48.818;9.312;2023-12-28T05:37:46;4.40;;;1.83;;
18172;SDS011;9211;48.818;9.312;2023-12-28T05:40:13;3.85;;;1.83;;
18172;SDS011;9211;48.818;9.312;2023-12-28T05:42:40;3.55;;;1.90;;
18172;SDS011;9211;48.818;9.312;2023-12-28T05:45:07;4.43;;;1.90;;
18172;SDS011;9211;48.818;9.312;2023-12-28T05:47:37;4.85;;;2.10;;
18172;SDS011;9211;48.818;9.312;2023-12-28T05:50:04;5.43;;;2.10;;
18172;SDS011;9211;48.818;9.312;2023-12-28T05:52:31;4.77;;;2.23;;
18172;SDS011;9211;48.818;9.312;2023-12-28T05:54:58;4.83;;;2.30;;
18172;SDS011;9211;48.818;9.312;2023-12-28T05:57:25;4.30;;;2.20;;
18172;SDS011;9211;48.818;9.312;2023-12-28T05:59:55;7.18;;;2.10;;
18172;SDS011;9211;48.818;9.312;2023-12-28T06:02:22;3.78;;;2.20;;
18172;SDS011;9211;48.818;9.312;2023-12-28T06:04:50;5.97;;;2.40;;
18172;SDS011;9211;48.818;9.312;2023-12-28T06:07:17;3.85;;;2.10;;
18172;SDS011;9211;48.818;9.312;2023-12-28T06:09:44;4.40;;;2.20;;
18172;SDS011;9211;48.818;9.312;2023-12-28T06:12:11;5.03;;;2.30;;
18172;SDS011;9211;48.818;9.312;2023-12-28T06:14:38;4.83;;;2.40;;
18172;SDS011;9211;48.818;9.312;2023-12-28T06:17:05;4.70;;;2.30;;
18172;SDS011;9211;48.818;9.312;2023-12-28T06:19:32;4.10;;;2.15;;
18172;SDS011;9211;48.818;9.312;2023-12-28T06:22:00;5.00;;;2.25;;
18172;SDS011;9211;48.818;9.312;2023-12-28T06:24:27;4.80;;;2.40;;
18172;SDS011;9211;48.818;9.312;2023-12-28T06:26:54;4.65;;;2.45;;
18172;SDS011;9211;48.818;9.312;2023-12-28T06:29:21;4.90;;;2.95;;
18172;SDS011;9211;48.818;9.312;2023-12-28T06:31:48;5.50;;;2.70;;
18172;SDS011;9211;48.818;9.312;2023-12-28T06:34:15;6.00;;;3.30;;
18172;SDS011;9211;48.818;9.312;2023-12-28T06:36:42;5.95;;;3.30;;
18172;SDS011;9211;48.818;9.312;2023-12-28T06:39:10;7.35;;;3.30;;
18172;SDS011;9211;48.818;9.312;2023-12-28T06:41:37;5.75;;;2.40;;
18172;SDS011;9211;48.818;9.312;2023-12-28T06:44:04;4.93;;;2.28;;
18172;SDS011;9211;48.818;9.312;2023-12-28T06:46:31;4.78;;;2.30;;
18172;SDS011;9211;48.818;9.312;2023-12-28T06:48:58;3.88;;;2.20;;
18172;SDS011;9211;48.818;9.312;2023-12-28T06:51:25;3.90;;;2.30;;
18172;SDS011;9211;48.818;9.312;2023-12-28T06:53:52;4.97;;;2.05;;
18172;SDS011;9211;48.818;9.312;2023-12-28T06:56:20;4.53;;;2.40;;
18172;SDS011;9211;48.818;9.312;2023-12-28T06:58:47;4.80;;;2.80;;
18172;SDS011;9211;48.818;9.312;2023-12-28T07:01:14;5.30;;;2.80;;
18172;SDS011;9211;48.818;9.312;2023-12-28T07:03:41;4.80;;;2.42;;
18172;SDS011;9211;48.818;9.312;2023-12-28T07:06:08;4.72;;;2.35;;
18172;SDS011;9211;48.818;9.312;2023-12-28T07:08:35;4.85;;;2.33;;
18172;SDS011;9211;48.818;9.312;2023-12-28T07:11:05;6.60;;;2.60;;
18172;SDS011;9211;48.818;9.312;2023-12-28T07:13:33;5.07;;;2.40;;
18172;SDS011;9211;48.818;9.312;2023-12-28T07:16:00;5.73;;;2.60;;
18172;SDS011;9211;48.818;9.312;2023-12-28T07:18:27;7.13;;;2.53;;
18172;SDS011;9211;48.818;9.312;2023-12-28T07:20:54;4.50;;;2.60;;
18172;SDS011;9211;48.818;9.312;2023-12-28T07:23:21;4.97;;;2.70;;
18172;SDS011;9211;48.818;9.312;2023-12-28T07:25:48;6.93;;;3.17;;
18172;SDS011;9211;48.818;9.312;2023-12-28T07:28:15;6.80;;;3.10;;
18172;SDS011;9211;48.818;9.312;2023-12-28T07:30:44;6.90;;;3.08;;
18172;SDS011;9211;48.818;9.312;2023-12-28T07:33:10;7.03;;;3.20;;
18172;SDS011;9211;48.818;9.312;2023-12-28T07:35:37;5.47;;;2.60;;
18172;SDS011;9211;48.818;9.312;2023-12-28T07:38:04;8.65;;;2.95;;
18172;SDS011;9211;48.818;9.312;2023-12-28T07:40:31;6.68;;;2.80;;
18172;SDS011;9211;48.818;9.312;2023-12-28T07:42:58;4.95;;;2.60;;
18172;SDS011;9211;48.818;9.312;2023-12-28T07:45:26;6.03;;;2.70;;
18172;SDS011;9211;48.818;9.312;2023-12-28T07:47:54;5.60;;;2.50;;
18172;SDS011;9211;48.818;9.312;2023-12-28T07:50:21;6.13;;;2.40;;
18172;SDS011;9211;48.818;9.312;2023-12-28T07:52:48;5.13;;;2.60;;
18172;SDS011;9211;48.818;9.312;2023-12-28T07:55:15;6.75;;;2.83;;
18172;SDS011;9211;48.818;9.312;2023-12-28T07:57:42;6.22;;;2.67;;
18172;SDS011;9211;48.818;9.312;2023-12-28T08:00:10;7.00;;;2.90;;
18172;SDS011;9211;48.818;9.312;2023-12-28T08:02:37;5.38;;;2.90;;
18172;SDS011;9211;48.818;9.312;2023-12-28T08:05:06;6.75;;;3.00;;
18172;SDS011;9211;48.818;9.312;2023-12-28T08:07:33;5.25;;;2.55;;
18172;SDS011;9211;48.818;9.312;2023-12-28T08:10:01;7.35;;;2.78;;
18172;SDS011;9211;48.818;9.312;2023-12-28T08:12:29;5.50;;;2.97;;
18172;SDS011;9211;48.818;9.312;2023-12-28T08:14:56;5.10;;;2.60;;
18172;SDS011;9211;48.818;9.312;2023-12-28T08:17:23;5.60;;;2.67;;
18172;SDS011;9211;48.818;9.312;2023-12-28T08:19:49;5.47;;;2.60;;
18172;SDS011;9211;48.818;9.312;2023-12-28T08:22:18;7.93;;;2.80;;
18172;SDS011;9211;48.818;9.312;2023-12-28T08:24:45;6.07;;;2.43;;
18172;SDS011;9211;48.818;9.312;2023-12-28T08:27:12;5.50;;;2.60;;
18172;SDS011;9211;48.818;9.312;2023-12-28T08:29:39;16.23;;;7.75;;
18172;SDS011;9211;48.818;9.312;2023-12-28T08:32:07;9.50;;;5.00;;
18172;SDS011;9211;48.818;9.312;2023-12-28T08:34:34;7.28;;;3.97;;
18172;SDS011;9211;48.818;9.312;2023-12-28T08:37:01;7.97;;;3.80;;
18172;SDS011;9211;48.818;9.312;2023-12-28T08:39:30;8.90;;;3.60;;
18172;SDS011;9211;48.818;9.312;2023-12-28T08:41:57;9.40;;;3.22;;
18172;SDS011;9211;48.818;9.312;2023-12-28T08:44:24;8.27;;;3.30;;
18172;SDS011;9211;48.818;9.312;2023-12-28T08:46:51;9.50;;;3.30;;
18172;SDS011;9211;48.818;9.312;2023-12-28T08:49:18;10.75;;;3.67;;
18172;SDS011;9211;48.818;9.312;2023-12-28T08:51:45;7.57;;;3.67;;
18172;SDS011;9211;48.818;9.312;2023-12-28T08:54:12;8.93;;;3.78;;
18172;SDS011;9211;48.818;9.312;2023-12-28T08:56:41;7.30;;;3.67;;
18172;SDS011;9211;48.818;9.312;2023-12-28T08:59:08;6.32;;;3.60;;
18172;SDS011;9211;48.818;9.312;2023-12-28T09:01:35;8.48;;;3.90;;
18172;SDS011;9211;48.818;9.312;2023-12-28T09:04:03;6.60;;;3.78;;
18172;SDS011;9211;48.818;9.312;2023-12-28T09:06:30;8.07;;;3.92;;
18172;SDS011;9211;48.818;9.312;2023-12-28T09:08:57;8.10;;;4.20;;
18172;SDS011;9211;48.818;9.312;2023-12-28T09:11:24;8.15;;;3.92;;
18172;SDS011;9211;48.818;9.312;2023-12-28T09:13:53;9.73;;;3.90;;
18172;SDS011;9211;48.818;9.312;2023-12-28T09:16:20;8.70;;;3.70;;
18172;SDS011;9211;48.818;9.312;2023-12-28T09:18:47;8.27;;;3.70;;
18172;SDS011;9211;48.818;9.312;2023-12-28T09:21:14;6.63;;;3.33;;
18172;SDS011;9211;48.818;9.312;2023-12-28T09:23:41;7.73;;;3.70;;
18172;SDS011;9211;48.818;9.312;2023-12-28T09:26:08;9.43;;;3.73;;
18172;SDS011;9211;48.818;9.312;2023-12-28T09:28:35;8.65;;;3.75;;
18172;SDS011;9211;48.818;9.312;2023-12-28T09:31:03;11.18;;;3.72;;
18172;SDS011;9211;48.818;9.312;2023-12-28T09:33:30;10.90;;;4.28;;
18172;SDS011;9211;48.818;9.312;2023-12-28T09:35:57;10.23;;;4.47;;
18172;SDS011;9211;48.818;9.312;2023-12-28T09:38:25;7.30;;;3.97;;
18172;SDS011;9211;48.818;9.312;2023-12-28T09:40:53;7.88;;;4.55;;
18172;SDS011;9211;48.818;9.312;2023-12-28T09:43:22;12.25;;;4.65;;
18172;SDS011;9211;48.818;9.312;2023-12-28T09:45:50;8.65;;;4.70;;
18172;SDS011;9211;48.818;9.312;2023-12-28T09:48:19;9.25;;;4.57;;
18172;SDS011;9211;48.818;9.312;2023-12-28T09:50:49;9.97;;;4.73;;
18172;SDS011;9211;48.818;9.312;2023-12-28T09:53:19;10.40;;;4.80;;
18172;SDS011;9211;48.818;9.312;2023-12-28T09:55:48;10.20;;;4.85;;
18172;SDS011;9211;48.818;9.312;2023-12-28T09:58:17;9.27;;;5.00;;
18172;SDS011;9211;48.818;9.312;2023-12-28T10:00:45;8.38;;;4.70;;
18172;SDS011;9211;48.818;9.312;2023-12-28T10:03:13;9.93;;;4.70;;
18172;SDS011;9211;48.818;9.312;2023-12-28T10:05:43;9.02;;;4.60;;
18172;SDS011;9211;48.818;9.312;2023-12-28T10:08:10;8.57;;;4.60;;
18172;SDS011;9211;48.818;9.312;2023-12-28T10:10:38;8.68;;;4.32;;
18172;SDS011;9211;48.818;9.312;2023-12-28T10:13:06;7.82;;;4.28;;
18172;SDS011;9211;48.818;9.312;2023-12-28T10:15:34;10.95;;;4.50;;
18172;SDS011;9211;48.818;9.312;2023-12-28T10:18:03;11.15;;;4.80;;
18172;SDS011;9211;48.818;9.312;2023-12-28T10:20:30;9.43;;;4.57;;
18172;SDS011;9211;48.818;9.312;2023-12-28T10:22:59;8.20;;;4.20;;
18172;SDS011;9211;48.818;9.312;2023-12-28T10:25:26;8.23;;;4.00;;
18172;SDS011;9211;48.818;9.312;2023-12-28T10:27:54;7.43;;;4.30;;
18172;SDS011;9211;48.818;9.312;2023-12-28T10:30:21;10.98;;;4.93;;
18172;SDS011;9211;48.818;9.312;2023-12-28T10:32:48;10.77;;;4.95;;
18172;SDS011;9211;48.818;9.312;2023-12-28T10:35:15;10.98;;;4.70;;
18172;SDS011;9211;48.818;9.312;2023-12-28T10:37:42;8.80;;;4.25;;
18172;SDS011;9211;48.818;9.312;2023-12-28T10:40:12;9.70;;;4.85;;
18172;SDS011;9211;48.818;9.312;2023-12-28T10:42:43;7.40;;;4.32;;
18172;SDS011;9211;48.818;9.312;2023-12-28T10:45:16;7.75;;;4.20;;
18172;SDS011;9211;48.818;9.312;2023-12-28T10:47:47;9.35;;;4.25;;
18172;SDS011;9211;48.818;9.312;2023-12-28T10:50:26;10.77;;;4.53;;
18172;SDS011;9211;48.818;9.312;2023-12-28T10:52:56;9.87;;;4.40;;
18172;SDS011;9211;48.818;9.312;2023-12-28T10:55:38;7.65;;;4.55;;
18172;SDS011;9211;48.818;9.312;2023-12-28T10:58:14;8.43;;;4.75;;
18172;SDS011;9211;48.818;9.312;2023-12-28T11:00:47;7.82;;;4.22;;
18172;SDS011;9211;48.818;9.312;2023-12-28T11:03:27;8.75;;;4.20;;
18172;SDS011;9211;48.818;9.312;2023-12-28T11:06:00;7.90;;;4.35;;
18172;SDS011;9211;48.818;9.312;2023-12-28T11:08:28;9.23;;;4.38;;
18172;SDS011;9211;48.818;9.312;2023-12-28T11:10:59;9.68;;;4.40;;
18172;SDS011;9211;48.818;9.312;2023-12-28T11:13:30;6.25;;;3.67;;
18172;SDS011;9211;48.818;9.312;2023-12-28T11:15:59;8.95;;;4.40;;
18172;SDS011;9211;48.818;9.312;2023-12-28T11:18:28;9.45;;;5.18;;
18172;SDS011;9211;48.818;9.312;2023-12-28T11:20:55;14.35;;;5.80;;
18172;SDS011;9211;48.818;9.312;2023-12-28T11:23:23;9.75;;;5.88;;
18172;SDS011;9211;48.818;9.312;2023-12-28T11:25:50;12.10;;;6.43;;
18172;SDS011;9211;48.818;9.312;2023-12-28T11:28:18;15.27;;;7.00;;
18172;SDS011;9211;48.818;9.312;2023-12-28T11:30:46;14.50;;;6.80;;
18172;SDS011;9211;48.818;9.312;2023-12-28T11:33:13;13.20;;;6.78;;
18172;SDS011;9211;48.818;9.312;2023-12-28T11:35:41;11.50;;;6.30;;
18172;SDS011;9211;48.818;9.312;2023-12-28T11:38:09;10.60;;;5.78;;
18172;SDS011;9211;48.818;9.312;2023-12-28T11:40:40;11.02;;;6.10;;
18172;SDS011;9211;48.818;9.312;2023-12-28T11:43:15;10.27;;;4.80;;
18172;SDS011;9211;48.818;9.312;2023-12-28T11:45:49;9.43;;;5.07;;
18172;SDS011;9211;48.818;9.312;2023-12-28T11:48:23;11.02;;;4.80;;
18172;SDS011;9211;48.818;9.312;2023-12-28T11:50:53;8.93;;;4.65;;
18172;SDS011;9211;48.818;9.312;2023-12-28T11:53:22;9.73;;;4.72;;
18172;SDS011;9211;48.818;9.312;2023-12-28T11:55:49;10.15;;;4.75;;
18172;SDS011;9211;48.818;9.312;2023-12-28T11:58:16;9.95;;;4.65;;
18172;SDS011;9211;48.818;9.312;2023-12-28T12:00:45;9.73;;;5.00;;
18172;SDS011;9211;48.818;9.312;2023-12-28T12:03:13;10.00;;;5.15;;
18172;SDS011;9211;48.818;9.312;2023-12-28T12:05:40;11.70;;;5.47;;
18172;SDS011;9211;48.818;9.312;2023-12-28T12:08:08;12.75;;;5.65;;
18172;SDS011;9211;48.818;9.312;2023-12-28T12:10:38;13.38;;;5.50;;
18172;SDS011;9211;48.818;9.312;2023-12-28T12:13:05;12.40;;;5.85;;
18172;SDS011;9211;48.818;9.312;2023-12-28T12:15:34;16.67;;;6.10;;
18172;SDS011;9211;48.818;9.312;2023-12-28T12:18:02;13.13;;;5.68;;
18172;SDS011;9211;48.818;9.312;2023-12-28T12:20:30;13.77;;;5.47;;
18172;SDS011;9211;48.818;9.312;2023-12-28T12:22:57;11.82;;;5.65;;
18172;SDS011;9211;48.818;9.312;2023-12-28T12:25:25;14.73;;;6.20;;
18172;SDS011;9211;48.818;9.312;2023-12-28T12:27:53;13.27;;;6.25;;
18172;SDS011;9211;48.818;9.312;2023-12-28T12:30:20;14.18;;;6.32;;
18172;SDS011;9211;48.818;9.312;2023-12-28T12:32:49;15.52;;;6.47;;
18172;SDS011;9211;48.818;9.312;2023-12-28T12:35:16;14.07;;;6.75;;
18172;SDS011;9211;48.818;9.312;2023-12-28T12:37:46;14.82;;;6.15;;
18172;SDS011;9211;48.818;9.312;2023-12-28T12:40:15;15.30;;;6.35;;
18172;SDS011;9211;48.818;9.312;2023-12-28T12:42:51;14.68;;;6.13;;
18172;SDS011;9211;48.818;9.312;2023-12-28T12:45:19;15.90;;;6.00;;
18172;SDS011;9211;48.818;9.312;2023-12-28T12:47:46;16.97;;;6.00;;
18172;SDS011;9211;48.818;9.312;2023-12-28T12:50:16;13.57;;;6.13;;
18172;SDS011;9211;48.818;9.312;2023-12-28T12:52:43;14.05;;;5.68;;
18172;SDS011;9211;48.818;9.312;2023-12-28T12:55:12;13.52;;;5.80;;
18172;SDS011;9211;48.818;9.312;2023-12-28T12:57:39;15.85;;;5.75;;
18172;SDS011;9211;48.818;9.312;2023-12-28T13:00:08;9.55;;;5.30;;
18172;SDS011;9211;48.818;9.312;2023-12-28T13:02:36;11.30;;;6.07;;
18172;SDS011;9211;48.818;9.312;2023-12-28T13:05:04;12.98;;;6.18;;
18172;SDS011;9211;48.818;9.312;2023-12-28T13:07:33;12.90;;;6.28;;
18172;SDS011;9211;48.818;9.312;2023-12-28T13:10:00;15.48;;;6.20;;
18172;SDS011;9211;48.818;9.312;2023-12-28T13:12:27;10.25;;;6.07;;
18172;SDS011;9211;48.818;9.312;2023-12-28T13:14:54;14.43;;;6.57;;
18172;SDS011;9211;48.818;9.312;2023-12-28T13:17:21;12.85;;;6.10;;
18172;SDS011;9211;48.818;9.312;2023-12-28T13:19:47;11.80;;;6.03;;
18172;SDS011;9211;48.818;9.312;2023-12-28T13:22:14;12.50;;;6.47;;
18172;SDS011;9211;48.818;9.312;2023-12-28T13:24:43;12.88;;;6.22;;
18172;SDS011;9211;48.818;9.312;2023-12-28T13:27:09;15.05;;;6.70;;
18172;SDS011;9211;48.818;9.312;2023-12-28T13:29:36;13.57;;;6.63;;
18172;SDS011;9211;48.818;9.312;2023-12-28T13:32:04;13.10;;;6.20;;
18172;SDS011;9211;48.818;9.312;2023-12-28T13:34:31;12.48;;;6.60;;
18172;SDS011;9211;48.818;9.312;2023-12-28T13:36:58;15.27;;;7.10;;
18172;SDS011;9211;48.818;9.312;2023-12-28T13:39:27;14.55;;;7.25;;
18172;SDS011;9211;48.818;9.312;2023-12-28T13:41:56;17.15;;;8.40;;
18172;SDS011;9211;48.818;9.312;2023-12-28T13:44:23;18.70;;;8.70;;
18172;SDS011;9211;48.818;9.312;2023-12-28T13:46:50;20.15;;;9.63;;
18172;SDS011;9211;48.818;9.312;2023-12-28T13:49:19;19.92;;;9.95;;
18172;SDS011;9211;48.818;9.312;2023-12-28T13:51:45;20.25;;;9.40;;
18172;SDS011;9211;48.818;9.312;2023-12-28T13:54:12;19.33;;;8.35;;
18172;SDS011;9211;48.818;9.312;2023-12-28T13:56:39;17.75;;;8.10;;
18172;SDS011;9211;48.818;9.312;2023-12-28T13:59:08;12.50;;;6.50;;
18172;SDS011;9211;48.818;9.312;2023-12-28T14:01:35;14.73;;;6.90;;
18172;SDS011;9211;48.818;9.312;2023-12-28T14:04:02;16.63;;;6.20;;
18172;SDS011;9211;48.818;9.312;2023-12-28T14:06:29;12.20;;;6.55;;
18172;SDS011;9211;48.818;9.312;2023-12-28T14:08:56;12.98;;;6.85;;
18172;SDS011;9211;48.818;9.312;2023-12-28T14:11:23;13.00;;;7.18;;
18172;SDS011;9211;48.818;9.312;2023-12-28T14:13:50;14.48;;;7.00;;
18172;SDS011;9211;48.818;9.312;2023-12-28T14:16:19;17.00;;;7.03;;
18172;SDS011;9211;48.818;9.312;2023-12-28T14:18:45;12.57;;;6.75;;
18172;SDS011;9211;48.818;9.312;2023-12-28T14:21:14;10.57;;;5.65;;
18172;SDS011;9211;48.818;9.312;2023-12-28T14:23:41;7.05;;;3.75;;
18172;SDS011;9211;48.818;9.312;2023-12-28T14:26:10;6.70;;;3.40;;
18172;SDS011;9211;48.818;9.312;2023-12-28T14:28:39;7.82;;;3.90;;
18172;SDS011;9211;48.818;9.312;2023-12-28T14:31:07;8.38;;;4.28;;
18172;SDS011;9211;48.818;9.312;2023-12-28T14:33:36;6.18;;;3.30;;
18172;SDS011;9211;48.818;9.312;2023-12-28T14:36:05;4.50;;;2.80;;
18172;SDS011;9211;48.818;9.312;2023-12-28T14:38:41;5.47;;;2.67;;
18172;SDS011;9211;48.818;9.312;2023-12-28T14:41:08;5.68;;;2.80;;
18172;SDS011;9211;48.818;9.312;2023-12-28T14:43:35;5.30;;;2.58;;
18172;SDS011;9211;48.818;9.312;2023-12-28T14:46:02;4.97;;;2.30;;
18172;SDS011;9211;48.818;9.312;2023-12-28T14:48:30;4.38;;;1.92;;
18172;SDS011;9211;48.818;9.312;2023-12-28T14:50:59;4.40;;;2.00;;
18172;SDS011;9211;48.818;9.312;2023-12-28T14:53:26;4.53;;;2.47;;
18172;SDS011;9211;48.818;9.312;2023-12-28T14:55:52;4.55;;;2.20;;
18172;SDS011;9211;48.818;9.312;2023-12-28T14:58:19;4.35;;;2.20;;
18172;SDS011;9211;48.818;9.312;2023-12-28T15:00:47;5.43;;;2.30;;
18172;SDS011;9211;48.818;9.312;2023-12-28T15:03:14;7.22;;;3.03;;